sensor_id;sensor_type;location;lat;lon;timestamp;pressure;altitude;pressure_sealevel;temperature;humidity
16451;BME280;12243;42.708;23.310;2023-04-02T00:02:30;94157.13;;;8.15;84.78
16451;BME280;12243;42.708;23.310;2023-04-02T00:05:25;94154.53;;;8.15;84.71
16451;BME280;12243;42.708;23.310;2023-04-02T00:07:57;94156.47;;;8.13;84.10
16451;BME280;12243;42.708;23.310;2023-04-02T00:10:27;94150.31;;;8.14;83.36
16451;BME280;12243;42.708;23.310;2023-04-02T00:12:59;94151.28;;;8.22;83.19
16451;BME280;12243;42.708;23.310;2023-04-02T00:15:27;94147.75;;;8.23;82.66
16451;BME280;12243;42.708;23.310;2023-04-02T00:17:54;94149.09;;;8.27;82.60
16451;BME280;12243;42.708;23.310;2023-04-02T00:20:23;94143.09;;;8.36;81.73
16451;BME280;12243;42.708;23.310;2023-04-02T00:22:52;94148.03;;;8.40;81.51
16451;BME280;12243;42.708;23.310;2023-04-02T00:25:20;94146.25;;;8.40;81.24
16451;BME280;12243;42.708;23.310;2023-04-02T00:27:47;94144.09;;;8.45;80.60
16451;BME280;12243;42.708;23.310;2023-04-02T00:30:15;94136.31;;;8.55;80.67
16451;BME280;12243;42.708;23.310;2023-04-02T00:32:45;94136.69;;;8.60;80.32
16451;BME280;12243;42.708;23.310;2023-04-02T00:35:17;94139.84;;;8.64;79.64
16451;BME280;12243;42.708;23.310;2023-04-02T00:37:46;94132.47;;;8.59;79.86
16451;BME280;12243;42.708;23.310;2023-04-02T00:40:18;94136.44;;;8.63;79.34
16451;BME280;12243;42.708;23.310;2023-04-02T00:42:47;94134.38;;;8.67;79.25
16451;BME280;12243;42.708;23.310;2023-04-02T00:45:20;94136.28;;;8.65;79.54
16451;BME280;12243;42.708;23.310;2023-04-02T00:47:48;94140.91;;;8.71;78.68
16451;BME280;12243;42.708;23.310;2023-04-02T00:50:22;94143.25;;;8.74;78.38
16451;BME280;12243;42.708;23.310;2023-04-02T00:52:53;94139.56;;;8.76;77.86
16451;BME280;12243;42.708;23.310;2023-04-02T00:55:24;94136.16;;;8.76;78.40
16451;BME280;12243;42.708;23.310;2023-04-02T00:57:53;94137.94;;;8.66;78.83
16451;BME280;12243;42.708;23.310;2023-04-02T01:00:26;94137.94;;;8.66;78.61
16451;BME280;12243;42.708;23.310;2023-04-02T01:03:13;94138.75;;;8.76;78.64
16451;BME280;12243;42.708;23.310;2023-04-02T01:05:57;94132.47;;;8.69;78.69
16451;BME280;12243;42.708;23.310;2023-04-02T01:08:38;94135.88;;;8.79;78.68
16451;BME280;12243;42.708;23.310;2023-04-02T01:11:16;94138.75;;;8.76;77.79
16451;BME280;12243;42.708;23.310;2023-04-02T01:13:55;94142.28;;;8.75;78.40
16451;BME280;12243;42.708;23.310;2023-04-02T01:16:32;94151.56;;;8.77;78.03
16451;BME280;12243;42.708;23.310;2023-04-02T01:19:12;94142.00;;;8.78;79.29
16451;BME280;12243;42.708;23.310;2023-04-02T01:21:52;94155.16;;;8.38;82.72
16451;BME280;12243;42.708;23.310;2023-04-02T01:24:29;94151.59;;;7.69;86.10
16451;BME280;12243;42.708;23.310;2023-04-02T01:26:58;94154.19;;;7.29;88.68
16451;BME280;12243;42.708;23.310;2023-04-02T01:29:28;94160.78;;;6.91;92.12
16451;BME280;12243;42.708;23.310;2023-04-02T01:32:00;94159.91;;;6.60;93.68
16451;BME280;12243;42.708;23.310;2023-04-02T01:34:28;94157.66;;;6.55;94.16
16451;BME280;12243;42.708;23.310;2023-04-02T01:37:06;94156.28;;;6.51;94.53
16451;BME280;12243;42.708;23.310;2023-04-02T01:39:46;94158.63;;;6.54;95.30
16451;BME280;12243;42.708;23.310;2023-04-02T01:42:20;94167.50;;;6.40;96.37
16451;BME280;12243;42.708;23.310;2023-04-02T01:44:51;94163.38;;;6.38;95.91
16451;BME280;12243;42.708;23.310;2023-04-02T01:47:21;94162.38;;;6.29;97.14
16451;BME280;12243;42.708;23.310;2023-04-02T01:50:02;94162.53;;;6.28;98.16
16451;BME280;12243;42.708;23.310;2023-04-02T01:52:36;94159.84;;;6.18;99.13
16451;BME280;12243;42.708;23.310;2023-04-02T01:55:06;94159.94;;;6.16;99.23
16451;BME280;12243;42.708;23.310;2023-04-02T01:57:33;94157.38;;;6.16;99.93
16451;BME280;12243;42.708;23.310;2023-04-02T02:00:03;94157.69;;;6.23;99.25
16451;BME280;12243;42.708;23.310;2023-04-02T02:02:39;94151.94;;;6.19;98.76
16451;BME280;12243;42.708;23.310;2023-04-02T02:05:11;94154.34;;;6.11;99.51
16451;BME280;12243;42.708;23.310;2023-04-02T02:07:41;94149.59;;;6.16;100.00
16451;BME280;12243;42.708;23.310;2023-04-02T02:10:13;94151.94;;;6.19;100.00
16451;BME280;12243;42.708;23.310;2023-04-02T02:12:48;94152.19;;;6.16;99.47
16451;BME280;12243;42.708;23.310;2023-04-02T02:15:19;94151.13;;;6.19;99.04
16451;BME280;12243;42.708;23.310;2023-04-02T02:17:47;94152.41;;;6.25;98.76
16451;BME280;12243;42.708;23.310;2023-04-02T02:20:14;94144.66;;;6.25;99.30
16451;BME280;12243;42.708;23.310;2023-04-02T02:22:43;94143.56;;;6.27;98.69
16451;BME280;12243;42.708;23.310;2023-04-02T02:25:15;94150.16;;;6.31;99.36
16451;BME280;12243;42.708;23.310;2023-04-02T02:27:48;94136.16;;;6.34;98.33
16451;BME280;12243;42.708;23.310;2023-04-02T02:30:21;94146.50;;;6.34;97.56
16451;BME280;12243;42.708;23.310;2023-04-02T02:32:54;94138.63;;;6.35;97.58
16451;BME280;12243;42.708;23.310;2023-04-02T02:35:26;94159.66;;;6.31;97.39
16451;BME280;12243;42.708;23.310;2023-04-02T02:38:01;94153.63;;;6.41;97.72
16451;BME280;12243;42.708;23.310;2023-04-02T02:40:37;94148.09;;;6.46;97.73
16451;BME280;12243;42.708;23.310;2023-04-02T02:43:09;94141.16;;;6.47;96.79
16451;BME280;12243;42.708;23.310;2023-04-02T02:45:40;94138.88;;;6.53;96.59
16451;BME280;12243;42.708;23.310;2023-04-02T02:48:11;94148.03;;;6.57;96.02
16451;BME280;12243;42.708;23.310;2023-04-02T02:50:40;94143.94;;;6.76;94.73
16451;BME280;12243;42.708;23.310;2023-04-02T02:53:15;94145.06;;;6.83;93.45
16451;BME280;12243;42.708;23.310;2023-04-02T02:55:44;94139.88;;;6.83;92.95
16451;BME280;12243;42.708;23.310;2023-04-02T02:58:19;94150.47;;;6.80;92.68
16451;BME280;12243;42.708;23.310;2023-04-02T03:01:15;94154.81;;;6.90;92.30
16451;BME280;12243;42.708;23.310;2023-04-02T03:03:44;94151.00;;;6.74;93.22
16451;BME280;12243;42.708;23.310;2023-04-02T03:06:15;94162.75;;;6.78;93.84
16451;BME280;12243;42.708;23.310;2023-04-02T03:08:52;94159.28;;;6.67;94.10
16451;BME280;12243;42.708;23.310;2023-04-02T03:11:33;94155.09;;;6.55;94.47
16451;BME280;12243;42.708;23.310;2023-04-02T03:14:13;94153.94;;;6.48;94.18
16451;BME280;12243;42.708;23.310;2023-04-02T03:16:48;94152.50;;;6.55;94.64
16451;BME280;12243;42.708;23.310;2023-04-02T03:19:25;94159.50;;;6.43;94.15
16451;BME280;12243;42.708;23.310;2023-04-02T03:21:56;94158.03;;;6.30;95.09
16451;BME280;12243;42.708;23.310;2023-04-02T03:24:34;94151.94;;;6.19;95.53
16451;BME280;12243;42.708;23.310;2023-04-02T03:27:09;94158.19;;;6.17;95.43
16451;BME280;12243;42.708;23.310;2023-04-02T03:29:40;94158.31;;;6.15;95.37
16451;BME280;12243;42.708;23.310;2023-04-02T03:32:14;94159.19;;;6.05;95.66
16451;BME280;12243;42.708;23.310;2023-04-02T03:34:46;94152.72;;;5.99;96.01
16451;BME280;12243;42.708;23.310;2023-04-02T03:37:21;94160.72;;;5.96;96.72
16451;BME280;12243;42.708;23.310;2023-04-02T03:39:52;94168.34;;;5.97;97.37
16451;BME280;12243;42.708;23.310;2023-04-02T03:42:23;94164.91;;;6.08;97.00
16451;BME280;12243;42.708;23.310;2023-04-02T03:44:56;94168.53;;;6.17;96.45
16451;BME280;12243;42.708;23.310;2023-04-02T03:47:30;94173.22;;;6.23;96.33
16451;BME280;12243;42.708;23.310;2023-04-02T03:50:04;94165.72;;;6.41;93.92
16451;BME280;12243;42.708;23.310;2023-04-02T03:52:35;94177.97;;;6.39;93.39
16451;BME280;12243;42.708;23.310;2023-04-02T03:55:11;94172.38;;;6.23;94.85
16451;BME280;12243;42.708;23.310;2023-04-02T03:57:46;94165.72;;;6.09;95.34
16451;BME280;12243;42.708;23.310;2023-04-02T04:00:20;94165.41;;;6.02;96.31
16451;BME280;12243;42.708;23.310;2023-04-02T04:02:57;94164.44;;;5.92;97.26
16451;BME280;12243;42.708;23.310;2023-04-02T04:05:28;94166.34;;;5.90;97.27
16451;BME280;12243;42.708;23.310;2023-04-02T04:08:01;94174.59;;;5.95;97.48
16451;BME280;12243;42.708;23.310;2023-04-02T04:10:29;94177.63;;;6.00;96.74
16451;BME280;12243;42.708;23.310;2023-04-02T04:13:02;94182.31;;;6.06;96.32
16451;BME280;12243;42.708;23.310;2023-04-02T04:15:32;94187.47;;;6.06;96.11
16451;BME280;12243;42.708;23.310;2023-04-02T04:18:10;94191.78;;;6.17;94.80
16451;BME280;12243;42.708;23.310;2023-04-02T04:20:48;94195.47;;;6.03;95.71
16451;BME280;12243;42.708;23.310;2023-04-02T04:23:26;94195.84;;;5.99;95.77
16451;BME280;12243;42.708;23.310;2023-04-02T04:25:58;94202.53;;;5.90;96.74
16451;BME280;12243;42.708;23.310;2023-04-02T04:28:32;94205.44;;;5.85;96.45
16451;BME280;12243;42.708;23.310;2023-04-02T04:31:12;94204.88;;;5.70;97.76
16451;BME280;12243;42.708;23.310;2023-04-02T04:33:48;94200.66;;;5.69;97.74
16451;BME280;12243;42.708;23.310;2023-04-02T04:36:24;94197.84;;;5.72;98.98
16451;BME280;12243;42.708;23.310;2023-04-02T04:39:03;94199.34;;;5.75;98.39
16451;BME280;12243;42.708;23.310;2023-04-02T04:41:36;94198.78;;;5.83;98.59
16451;BME280;12243;42.708;23.310;2023-04-02T04:44:09;94199.38;;;5.86;98.98
16451;BME280;12243;42.708;23.310;2023-04-02T04:46:46;94204.16;;;5.91;98.37
16451;BME280;12243;42.708;23.310;2023-04-02T04:49:24;94203.47;;;6.00;98.07
16451;BME280;12243;42.708;23.310;2023-04-02T04:51:56;94214.75;;;6.10;97.24
16451;BME280;12243;42.708;23.310;2023-04-02T04:54:26;94209.28;;;6.25;96.19
16451;BME280;12243;42.708;23.310;2023-04-02T04:56:58;94211.78;;;6.47;95.13
16451;BME280;12243;42.708;23.310;2023-04-02T04:59:28;94210.59;;;6.51;93.85
16451;BME280;12243;42.708;23.310;2023-04-02T05:02:02;94215.00;;;6.72;94.88
16451;BME280;12243;42.708;23.310;2023-04-02T05:04:35;94216.28;;;6.98;94.94
16451;BME280;12243;42.708;23.310;2023-04-02T05:07:08;94219.19;;;7.26;93.73
16451;BME280;12243;42.708;23.310;2023-04-02T05:09:39;94208.91;;;7.45;93.19
16451;BME280;12243;42.708;23.310;2023-04-02T05:12:16;94217.78;;;7.83;90.67
16451;BME280;12243;42.708;23.310;2023-04-02T05:14:50;94224.78;;;8.02;90.05
16451;BME280;12243;42.708;23.310;2023-04-02T05:17:23;94223.34;;;8.19;88.09
16451;BME280;12243;42.708;23.310;2023-04-02T05:19:58;94222.56;;;8.28;86.30
16451;BME280;12243;42.708;23.310;2023-04-02T05:22:32;94219.63;;;8.52;85.83
16451;BME280;12243;42.708;23.310;2023-04-02T05:25:11;94227.53;;;8.70;84.77
16451;BME280;12243;42.708;23.310;2023-04-02T05:27:45;94224.53;;;8.94;83.55
16451;BME280;12243;42.708;23.310;2023-04-02T05:30:41;94235.19;;;9.10;82.29
16451;BME280;12243;42.708;23.310;2023-04-02T05:33:21;94227.50;;;9.28;82.37
16451;BME280;12243;42.708;23.310;2023-04-02T05:35:56;94234.41;;;9.57;81.99
16451;BME280;12243;42.708;23.310;2023-04-02T05:38:26;94231.44;;;9.79;80.74
16451;BME280;12243;42.708;23.310;2023-04-02T05:40:59;94228.91;;;9.97;79.09
16451;BME280;12243;42.708;23.310;2023-04-02T05:43:29;94235.41;;;10.11;78.62
16451;BME280;12243;42.708;23.310;2023-04-02T05:45:58;94237.53;;;10.25;78.09
16451;BME280;12243;42.708;23.310;2023-04-02T05:48:32;94237.41;;;10.54;76.75
16451;BME280;12243;42.708;23.310;2023-04-02T05:51:04;94249.09;;;10.68;75.98
16451;BME280;12243;42.708;23.310;2023-04-02T05:53:38;94248.81;;;10.71;74.65
16451;BME280;12243;42.708;23.310;2023-04-02T05:56:10;94250.63;;;10.88;75.03
16451;BME280;12243;42.708;23.310;2023-04-02T05:58:43;94245.47;;;10.79;73.94
16451;BME280;12243;42.708;23.310;2023-04-02T06:01:39;94235.56;;;10.82;73.87
16451;BME280;12243;42.708;23.310;2023-04-02T06:04:19;94241.81;;;10.89;73.34
16451;BME280;12243;42.708;23.310;2023-04-02T06:06:56;94252.47;;;10.96;73.29
16451;BME280;12243;42.708;23.310;2023-04-02T06:09:32;94249.03;;;10.95;73.52
16451;BME280;12243;42.708;23.310;2023-04-02T06:12:12;94248.88;;;10.97;72.88
16451;BME280;12243;42.708;23.310;2023-04-02T06:14:42;94242.56;;;11.00;73.43
16451;BME280;12243;42.708;23.310;2023-04-02T06:17:13;94243.75;;;11.23;73.40
16451;BME280;12243;42.708;23.310;2023-04-02T06:19:41;94246.22;;;11.51;72.36
16451;BME280;12243;42.708;23.310;2023-04-02T06:22:20;94249.19;;;11.56;72.17
16451;BME280;12243;42.708;23.310;2023-04-02T06:24:55;94246.66;;;11.90;71.27
16451;BME280;12243;42.708;23.310;2023-04-02T06:27:25;94244.47;;;12.11;70.88
16451;BME280;12243;42.708;23.310;2023-04-02T06:29:56;94249.41;;;12.23;70.17
16451;BME280;12243;42.708;23.310;2023-04-02T06:32:28;94248.16;;;12.43;69.78
16451;BME280;12243;42.708;23.310;2023-04-02T06:34:56;94237.28;;;12.56;69.30
16451;BME280;12243;42.708;23.310;2023-04-02T06:37:27;94243.00;;;12.59;69.87
16451;BME280;12243;42.708;23.310;2023-04-02T06:40:31;94235.38;;;12.82;69.55
16451;BME280;12243;42.708;23.310;2023-04-02T06:43:07;94236.22;;;13.07;68.41
16451;BME280;12243;42.708;23.310;2023-04-02T06:46:02;94242.16;;;13.26;67.58
16451;BME280;12243;42.708;23.310;2023-04-02T06:49:00;94250.81;;;13.43;66.85
16451;BME280;12243;42.708;23.310;2023-04-02T06:51:31;94246.34;;;13.59;66.43
16451;BME280;12243;42.708;23.310;2023-04-02T06:54:02;94243.22;;;13.80;65.98
16451;BME280;12243;42.708;23.310;2023-04-02T06:56:39;94248.75;;;13.94;65.53
16451;BME280;12243;42.708;23.310;2023-04-02T06:59:07;94254.28;;;14.07;64.60
16451;BME280;12243;42.708;23.310;2023-04-02T07:01:38;94250.34;;;14.11;65.03
16451;BME280;12243;42.708;23.310;2023-04-02T07:04:07;94259.47;;;14.23;64.97
16451;BME280;12243;42.708;23.310;2023-04-02T07:06:40;94259.19;;;14.49;63.14
16451;BME280;12243;42.708;23.310;2023-04-02T07:09:08;94258.28;;;14.50;63.87
16451;BME280;12243;42.708;23.310;2023-04-02T07:11:38;94260.66;;;14.60;63.52
16451;BME280;12243;42.708;23.310;2023-04-02T07:14:08;94261.59;;;14.67;62.94
16451;BME280;12243;42.708;23.310;2023-04-02T07:16:36;94260.19;;;14.88;63.15
16451;BME280;12243;42.708;23.310;2023-04-02T07:19:04;94263.00;;;15.09;62.43
16451;BME280;12243;42.708;23.310;2023-04-02T07:21:34;94267.84;;;15.20;60.22
16451;BME280;12243;42.708;23.310;2023-04-02T07:24:01;94273.69;;;15.31;59.79
16451;BME280;12243;42.708;23.310;2023-04-02T07:26:30;94269.00;;;15.41;59.39
16451;BME280;12243;42.708;23.310;2023-04-02T07:28:57;94266.31;;;15.49;58.13
16451;BME280;12243;42.708;23.310;2023-04-02T07:31:26;94269.25;;;15.08;56.85
16451;BME280;12243;42.708;23.310;2023-04-02T07:33:54;94267.56;;;14.61;57.33
16451;BME280;12243;42.708;23.310;2023-04-02T07:36:23;94272.88;;;14.37;58.51
16451;BME280;12243;42.708;23.310;2023-04-02T07:38:50;94278.19;;;14.04;58.16
16451;BME280;12243;42.708;23.310;2023-04-02T07:41:17;94280.66;;;13.97;58.32
16451;BME280;12243;42.708;23.310;2023-04-02T07:43:46;94278.84;;;14.06;58.59
16451;BME280;12243;42.708;23.310;2023-04-02T07:46:14;94273.94;;;14.03;59.39
16451;BME280;12243;42.708;23.310;2023-04-02T07:48:42;94268.25;;;14.39;58.56
16451;BME280;12243;42.708;23.310;2023-04-02T07:51:15;94280.22;;;14.81;57.47
16451;BME280;12243;42.708;23.310;2023-04-02T07:53:43;94271.59;;;15.03;55.51
16451;BME280;12243;42.708;23.310;2023-04-02T07:56:15;94269.78;;;15.04;55.85
16451;BME280;12243;42.708;23.310;2023-04-02T07:58:43;94276.50;;;14.98;54.78
16451;BME280;12243;42.708;23.310;2023-04-02T08:01:19;94277.75;;;15.10;54.66
16451;BME280;12243;42.708;23.310;2023-04-02T08:03:48;94272.03;;;15.30;54.57
16451;BME280;12243;42.708;23.310;2023-04-02T08:06:15;94271.59;;;15.03;54.54
16451;BME280;12243;42.708;23.310;2023-04-02T08:08:42;94284.47;;;14.82;55.45
16451;BME280;12243;42.708;23.310;2023-04-02T08:11:09;94281.00;;;14.50;56.52
16451;BME280;12243;42.708;23.310;2023-04-02T08:13:37;94289.16;;;14.63;56.93
16451;BME280;12243;42.708;23.310;2023-04-02T08:16:05;94287.56;;;14.54;56.70
16451;BME280;12243;42.708;23.310;2023-04-02T08:18:34;94291.19;;;14.37;57.18
16451;BME280;12243;42.708;23.310;2023-04-02T08:21:02;94287.25;;;14.41;58.25
16451;BME280;12243;42.708;23.310;2023-04-02T08:23:32;94286.06;;;14.43;57.79
16451;BME280;12243;42.708;23.310;2023-04-02T08:26:00;94297.09;;;14.22;57.95
16451;BME280;12243;42.708;23.310;2023-04-02T08:28:27;94288.72;;;14.35;58.04
16451;BME280;12243;42.708;23.310;2023-04-02T08:30:54;94295.66;;;14.75;56.72
16451;BME280;12243;42.708;23.310;2023-04-02T08:33:21;94292.09;;;14.68;55.90
16451;BME280;12243;42.708;23.310;2023-04-02T08:35:50;94293.06;;;14.67;56.10
16451;BME280;12243;42.708;23.310;2023-04-02T08:38:20;94292.91;;;15.00;55.08
16451;BME280;12243;42.708;23.310;2023-04-02T08:40:49;94294.78;;;15.14;55.03
16451;BME280;12243;42.708;23.310;2023-04-02T08:43:26;94299.94;;;15.31;54.55
16451;BME280;12243;42.708;23.310;2023-04-02T08:46:03;94288.25;;;15.56;54.30
16451;BME280;12243;42.708;23.310;2023-04-02T08:48:33;94295.59;;;15.84;53.92
16451;BME280;12243;42.708;23.310;2023-04-02T08:51:04;94308.84;;;16.05;51.70
16451;BME280;12243;42.708;23.310;2023-04-02T08:53:34;94296.09;;;16.47;52.01
16451;BME280;12243;42.708;23.310;2023-04-02T08:56:06;94290.88;;;17.12;50.05
16451;BME280;12243;42.708;23.310;2023-04-02T08:58:43;94287.88;;;17.58;48.71
16451;BME280;12243;42.708;23.310;2023-04-02T09:01:19;94284.09;;;17.89;47.57
16451;BME280;12243;42.708;23.310;2023-04-02T09:03:49;94280.88;;;18.22;46.46
16451;BME280;12243;42.708;23.310;2023-04-02T09:06:19;94293.06;;;17.52;46.03
16451;BME280;12243;42.708;23.310;2023-04-02T09:08:49;94292.19;;;17.23;47.15
16451;BME280;12243;42.708;23.310;2023-04-02T09:11:21;94291.81;;;17.26;47.44
16451;BME280;12243;42.708;23.310;2023-04-02T09:13:53;94296.91;;;16.92;48.36
16451;BME280;12243;42.708;23.310;2023-04-02T09:16:29;94293.63;;;16.45;49.01
16451;BME280;12243;42.708;23.310;2023-04-02T09:18:59;94294.38;;;16.39;50.00
16451;BME280;12243;42.708;23.310;2023-04-02T09:21:34;94288.22;;;16.32;50.49
16451;BME280;12243;42.708;23.310;2023-04-02T09:24:04;94290.72;;;16.10;50.92
16451;BME280;12243;42.708;23.310;2023-04-02T09:26:32;94286.56;;;16.31;50.71
16451;BME280;12243;42.708;23.310;2023-04-02T09:29:03;94282.03;;;16.25;50.23
16451;BME280;12243;42.708;23.310;2023-04-02T09:31:43;94292.38;;;16.11;50.84
16451;BME280;12243;42.708;23.310;2023-04-02T09:34:27;94286.16;;;15.89;50.56
16451;BME280;12243;42.708;23.310;2023-04-02T09:36:56;94278.38;;;15.81;49.89
16451;BME280;12243;42.708;23.310;2023-04-02T09:39:24;94287.78;;;15.76;50.44
16451;BME280;12243;42.708;23.310;2023-04-02T09:41:51;94286.94;;;16.28;50.18
16451;BME280;12243;42.708;23.310;2023-04-02T09:44:21;94274.81;;;16.56;47.69
16451;BME280;12243;42.708;23.310;2023-04-02T09:46:52;94271.78;;;16.89;47.85
16451;BME280;12243;42.708;23.310;2023-04-02T09:49:22;94268.25;;;16.82;46.85
16451;BME280;12243;42.708;23.310;2023-04-02T09:52:10;94278.41;;;16.55;47.72
16451;BME280;12243;42.708;23.310;2023-04-02T09:54:42;94267.47;;;16.22;47.55
16451;BME280;12243;42.708;23.310;2023-04-02T09:57:18;94261.22;;;16.08;47.94
16451;BME280;12243;42.708;23.310;2023-04-02T10:00:09;94269.44;;;15.90;48.47
16451;BME280;12243;42.708;23.310;2023-04-02T10:02:39;94271.53;;;15.95;49.21
16451;BME280;12243;42.708;23.310;2023-04-02T10:05:17;94262.94;;;16.16;48.18
16451;BME280;12243;42.708;23.310;2023-04-02T10:07:46;94264.75;;;16.01;48.69
16451;BME280;12243;42.708;23.310;2023-04-02T10:10:20;94260.66;;;15.98;49.41
16451;BME280;12243;42.708;23.310;2023-04-02T10:12:53;94250.50;;;15.80;49.00
16451;BME280;12243;42.708;23.310;2023-04-02T10:15:28;94263.28;;;15.60;49.07
16451;BME280;12243;42.708;23.310;2023-04-02T10:18:04;94260.38;;;15.32;49.89
16451;BME280;12243;42.708;23.310;2023-04-02T10:20:34;94253.88;;;15.28;50.90
16451;BME280;12243;42.708;23.310;2023-04-02T10:23:07;94251.00;;;15.38;51.12
16451;BME280;12243;42.708;23.310;2023-04-02T10:25:44;94248.56;;;15.74;50.76
16451;BME280;12243;42.708;23.310;2023-04-02T10:28:22;94245.91;;;16.27;49.83
16451;BME280;12243;42.708;23.310;2023-04-02T10:30:57;94239.69;;;16.79;48.42
16451;BME280;12243;42.708;23.310;2023-04-02T10:33:29;94247.56;;;17.36;46.30
16451;BME280;12243;42.708;23.310;2023-04-02T10:36:02;94236.22;;;17.57;45.07
16451;BME280;12243;42.708;23.310;2023-04-02T10:38:52;94249.75;;;17.54;44.45
16451;BME280;12243;42.708;23.310;2023-04-02T10:41:27;94241.13;;;17.67;44.43
16451;BME280;12243;42.708;23.310;2023-04-02T10:44:25;94238.22;;;17.55;44.18
16451;BME280;12243;42.708;23.310;2023-04-02T10:47:07;94250.00;;;17.59;44.30
16451;BME280;12243;42.708;23.310;2023-04-02T10:49:40;94236.69;;;17.68;44.05
16451;BME280;12243;42.708;23.310;2023-04-02T10:52:16;94235.25;;;17.87;43.72
16451;BME280;12243;42.708;23.310;2023-04-02T10:54:53;94235.56;;;18.40;42.60
16451;BME280;12243;42.708;23.310;2023-04-02T10:57:29;94235.56;;;18.40;41.50
16451;BME280;12243;42.708;23.310;2023-04-02T11:00:04;94235.78;;;18.03;42.62
16451;BME280;12243;42.708;23.310;2023-04-02T11:02:38;94232.69;;;17.72;42.91
16451;BME280;12243;42.708;23.310;2023-04-02T11:05:18;94225.03;;;17.77;43.45
16451;BME280;12243;42.708;23.310;2023-04-02T11:07:54;94227.59;;;17.98;42.82
16451;BME280;12243;42.708;23.310;2023-04-02T11:10:25;94230.34;;;17.83;42.31
16451;BME280;12243;42.708;23.310;2023-04-02T11:12:57;94240.94;;;17.90;42.51
16451;BME280;12243;42.708;23.310;2023-04-02T11:15:28;94232.34;;;17.81;41.16
16451;BME280;12243;42.708;23.310;2023-04-02T11:17:56;94220.13;;;17.74;41.69
16451;BME280;12243;42.708;23.310;2023-04-02T11:21:03;94232.13;;;17.55;41.47
16451;BME280;12243;42.708;23.310;2023-04-02T11:23:37;94228.38;;;17.43;41.68
16451;BME280;12243;42.708;23.310;2023-04-02T11:26:38;94219.63;;;17.63;41.43
16451;BME280;12243;42.708;23.310;2023-04-02T11:29:16;94226.69;;;18.13;41.42
16451;BME280;12243;42.708;23.310;2023-04-02T11:31:46;94219.47;;;18.69;39.50
16451;BME280;12243;42.708;23.310;2023-04-02T11:34:15;94219.25;;;18.71;38.21
16451;BME280;12243;42.708;23.310;2023-04-02T11:37:07;94215.53;;;18.45;38.81
16451;BME280;12243;42.708;23.310;2023-04-02T11:39:49;94214.31;;;18.54;38.95
16451;BME280;12243;42.708;23.310;2023-04-02T11:42:23;94210.78;;;18.27;39.52
16451;BME280;12243;42.708;23.310;2023-04-02T11:44:50;94209.44;;;18.45;39.85
16451;BME280;12243;42.708;23.310;2023-04-02T11:47:19;94212.94;;;18.59;38.90
16451;BME280;12243;42.708;23.310;2023-04-02T11:50:00;94207.97;;;18.77;38.69
16451;BME280;12243;42.708;23.310;2023-04-02T11:52:35;94212.41;;;18.76;38.40
16451;BME280;12243;42.708;23.310;2023-04-02T11:55:20;94200.75;;;18.57;38.47
16451;BME280;12243;42.708;23.310;2023-04-02T12:01:33;94207.41;;;19.01;38.74
16451;BME280;12243;42.708;23.310;2023-04-02T12:07:12;94210.47;;;18.50;38.66
16451;BME280;12243;42.708;23.310;2023-04-02T12:09:48;94194.13;;;18.27;39.02
16451;BME280;12243;42.708;23.310;2023-04-02T12:12:24;94206.06;;;18.71;39.05
16451;BME280;12243;42.708;23.310;2023-04-02T12:14:54;94202.13;;;19.01;38.19
16451;BME280;12243;42.708;23.310;2023-04-02T12:17:29;94201.34;;;19.34;36.69
16451;BME280;12243;42.708;23.310;2023-04-02T12:19:59;94200.34;;;19.48;36.01
16451;BME280;12243;42.708;23.310;2023-04-02T12:22:27;94204.22;;;19.52;36.35
16451;BME280;12243;42.708;23.310;2023-04-02T12:24:58;94197.75;;;19.75;35.37
16451;BME280;12243;42.708;23.310;2023-04-02T12:27:26;94204.63;;;19.56;35.52
16451;BME280;12243;42.708;23.310;2023-04-02T12:30:11;94195.91;;;19.42;35.81
16451;BME280;12243;42.708;23.310;2023-04-02T12:32:40;94196.19;;;18.79;36.18
16451;BME280;12243;42.708;23.310;2023-04-02T12:35:25;94203.75;;;18.06;37.31
16451;BME280;12243;42.708;23.310;2023-04-02T12:37:54;94183.91;;;17.76;38.31
16451;BME280;12243;42.708;23.310;2023-04-02T12:40:24;94188.56;;;17.52;38.34
16451;BME280;12243;42.708;23.310;2023-04-02T12:42:51;94190.47;;;17.37;38.96
16451;BME280;12243;42.708;23.310;2023-04-02T12:45:25;94197.44;;;17.23;39.24
16451;BME280;12243;42.708;23.310;2023-04-02T12:47:54;94186.97;;;17.30;39.57
16451;BME280;12243;42.708;23.310;2023-04-02T12:50:22;94175.78;;;17.49;39.15
16451;BME280;12243;42.708;23.310;2023-04-02T12:52:50;94185.25;;;17.93;38.48
16451;BME280;12243;42.708;23.310;2023-04-02T12:55:22;94179.75;;;17.95;38.05
16451;BME280;12243;42.708;23.310;2023-04-02T12:57:54;94176.75;;;17.70;38.31
16451;BME280;12243;42.708;23.310;2023-04-02T13:00:31;94184.00;;;17.68;38.63
16451;BME280;12243;42.708;23.310;2023-04-02T13:03:14;94172.53;;;17.47;38.69
16451;BME280;12243;42.708;23.310;2023-04-02T13:05:44;94166.53;;;17.60;38.45
16451;BME280;12243;42.708;23.310;2023-04-02T13:08:16;94160.59;;;18.07;37.62
16451;BME280;12243;42.708;23.310;2023-04-02T13:10:43;94168.84;;;18.39;36.89
16451;BME280;12243;42.708;23.310;2023-04-02T13:13:23;94170.31;;;18.62;37.08
16451;BME280;12243;42.708;23.310;2023-04-02T13:16:02;94166.84;;;19.29;35.85
16451;BME280;12243;42.708;23.310;2023-04-02T13:18:30;94164.41;;;19.14;35.27
16451;BME280;12243;42.708;23.310;2023-04-02T13:20:58;94149.97;;;18.97;35.72
16451;BME280;12243;42.708;23.310;2023-04-02T13:23:32;94161.94;;;19.13;35.45
16451;BME280;12243;42.708;23.310;2023-04-02T13:26:08;94167.22;;;19.13;34.13
16451;BME280;12243;42.708;23.310;2023-04-02T13:28:37;94152.59;;;19.03;34.52
16451;BME280;12243;42.708;23.310;2023-04-02T13:31:08;94156.28;;;19.42;34.48
16451;BME280;12243;42.708;23.310;2023-04-02T13:33:38;94162.78;;;19.60;33.96
16451;BME280;12243;42.708;23.310;2023-04-02T13:36:09;94152.81;;;19.75;33.67